Time;durP1;ratioP1;P1;durP2;ratioP2;P2;SDS_P1;SDS_P2;PMS_P1;PMS_P2;Temp;Humidity;BMP_temperature;BMP_pressure;BME280_temperature;BME280_humidity;BME280_pressure;Samples;Min_cycle;Max_cycle;Signal;HPM_P1;HPM_P2
2023/08/14 00:02:07;;;;;;;5.30;2.50;;;;;;;14.39;72.65;99929.86;106472;1272;25319;-55
2023/08/14 00:04:36;;;;;;;6.00;2.80;;;;;;;14.42;73.04;99929.15;106488;1272;99424;-58
2023/08/14 00:07:05;;;;;;;5.30;1.70;;;;;;;14.46;73.24;99926.80;106532;1272;22534;-57
2023/08/14 00:09:34;;;;;;;2.90;1.80;;;;;;;14.51;73.39;99928.93;106948;1272;22525;-56
2023/08/14 00:12:03;;;;;;;3.30;1.40;;;;;;;14.57;73.70;99927.08;107263;1257;98407;-56
2023/08/14 00:14:32;;;;;;;7.00;2.50;;;;;;;14.60;73.69;99935.83;106388;1272;24259;-56
2023/08/14 00:17:00;;;;;;;3.70;1.90;;;;;;;14.61;73.63;99936.25;106357;1272;99304;-55
2023/08/14 00:19:29;;;;;;;3.90;2.00;;;;;;;14.61;73.68;99938.20;107000;1265;24267;-57
2023/08/14 00:21:58;;;;;;;5.60;1.90;;;;;;;14.57;74.03;99939.66;106419;1271;101393;-56
2023/08/14 00:24:33;;;;;;;3.70;2.00;;;;;;;14.60;74.34;99940.02;106686;1267;25403;-58
2023/08/14 00:27:05;;;;;;;4.90;2.00;;;;;;;14.68;74.46;99936.57;106637;1272;23887;-56
2023/08/14 00:29:36;;;;;;;4.90;1.90;;;;;;;14.74;74.40;99934.59;106919;1260;99232;-57
2023/08/14 00:32:05;;;;;;;4.20;1.80;;;;;;;14.79;74.39;99938.33;106750;1273;22657;-56
2023/08/14 00:34:34;;;;;;;4.80;1.70;;;;;;;14.83;74.41;99940.52;106542;1272;99379;-57
2023/08/14 00:37:03;;;;;;;4.10;1.80;;;;;;;14.86;74.42;99939.27;106641;1272;24207;-56
2023/08/14 00:39:32;;;;;;;3.60;1.60;;;;;;;14.88;74.50;99939.85;106504;1272;22608;-57
2023/08/14 00:42:01;;;;;;;4.20;1.90;;;;;;;14.90;74.38;99943.58;106534;1272;99770;-56
2023/08/14 00:44:30;;;;;;;4.40;1.30;;;;;;;14.91;74.59;99946.70;106438;1271;22526;-57
2023/08/14 00:46:59;;;;;;;4.90;1.80;;;;;;;14.91;74.68;99945.30;106405;1264;99270;-57
2023/08/14 00:49:27;;;;;;;3.70;1.80;;;;;;;14.91;74.74;99947.42;106616;1264;23908;-56
2023/08/14 00:51:56;;;;;;;2.90;1.30;;;;;;;14.89;74.69;99941.38;106429;1272;99472;-57
2023/08/14 00:54:26;;;;;;;3.00;1.30;;;;;;;14.89;74.84;99937.73;106605;1273;25532;-57
2023/08/14 00:56:55;;;;;;;2.40;1.30;;;;;;;14.87;74.91;99936.08;106473;1272;22529;-56
2023/08/14 00:59:24;;;;;;;5.30;1.80;;;;;;;14.85;74.99;99942.52;106452;1272;100133;-56
2023/08/14 01:01:53;;;;;;;4.60;1.40;;;;;;;14.83;75.07;99937.73;106493;1272;25342;-56
2023/08/14 01:04:22;;;;;;;6.50;1.90;;;;;;;14.83;75.27;99937.19;106485;1272;99459;-56
2023/08/14 01:06:51;;;;;;;4.10;1.80;;;;;;;14.83;75.41;99933.54;106679;1272;25397;-57
2023/08/14 01:09:21;;;;;;;4.20;1.50;;;;;;;14.82;75.24;99938.16;106548;1267;23455;-56
2023/08/14 01:12:14;;;;;;;3.50;1.40;;;;;;;14.82;75.34;99940.09;106612;1272;99265;-57
2023/08/14 01:14:52;;;;;;;4.10;1.20;;;;;;;14.81;75.67;99947.67;106497;1272;22888;-57
2023/08/14 01:17:25;;;;;;;2.30;1.30;;;;;;;14.82;75.93;99948.84;106679;1271;99278;-56
2023/08/14 01:19:58;;;;;;;8.20;1.40;;;;;;;14.82;76.01;99949.88;106452;1272;22775;-56
2023/08/14 01:22:39;;;;;;;4.40;1.40;;;;;;;14.78;76.31;99953.97;106328;1272;99457;-57
2023/08/14 01:25:31;;;;;;;2.30;1.30;;;;;;;14.77;76.49;99955.23;106484;1272;22534;-56
2023/08/14 01:28:01;;;;;;;3.30;1.20;;;;;;;14.80;76.39;99953.52;106552;1272;99976;-56
2023/08/14 01:30:31;;;;;;;2.70;1.50;;;;;;;14.82;76.52;99957.58;106936;1272;22523;-56
2023/08/14 01:33:00;;;;;;;2.90;1.00;;;;;;;14.81;76.73;99957.80;106558;1272;22495;-57
2023/08/14 01:35:42;;;;;;;4.20;1.10;;;;;;;14.77;76.73;99956.34;106622;1272;99283;-56
2023/08/14 01:38:19;;;;;;;6.70;2.20;;;;;;;14.74;76.81;99957.02;106393;1272;25488;-56
2023/08/14 01:41:24;;;;;;;2.30;1.30;;;;;;;14.71;76.81;99956.83;106471;1272;99426;-56
2023/08/14 01:43:58;;;;;;;2.20;1.10;;;;;;;14.66;76.97;99958.73;106505;1265;25310;-57
2023/08/14 01:46:31;;;;;;;1.80;1.40;;;;;;;14.60;77.29;99963.50;106436;1274;99773;-56
2023/08/14 01:49:02;;;;;;;4.00;1.10;;;;;;;14.56;77.37;99961.45;106407;1272;25301;-56
2023/08/14 01:51:32;;;;;;;6.00;1.50;;;;;;;14.53;77.56;99961.56;106734;1272;22526;-55
2023/08/14 01:54:01;;;;;;;4.80;1.40;;;;;;;14.51;77.63;99962.56;106296;1273;99268;-56
2023/08/14 01:56:30;;;;;;;2.70;1.60;;;;;;;14.48;77.67;99958.75;106563;1272;22530;-56
2023/08/14 01:59:01;;;;;;;5.60;1.30;;;;;;;14.44;77.76;99958.77;106371;1272;99354;-56
2023/08/14 02:01:33;;;;;;;2.90;1.70;;;;;;;14.42;77.81;99955.59;106616;1272;22536;-56
2023/08/14 02:04:04;;;;;;;4.30;1.60;;;;;;;14.36;77.95;99951.58;106655;1271;99984;-56
2023/08/14 02:06:33;;;;;;;2.10;1.30;;;;;;;14.32;78.01;99953.18;106541;1272;22536;-56
2023/08/14 02:09:03;;;;;;;2.80;1.40;;;;;;;14.31;78.07;99953.98;106528;1272;22544;-56
2023/08/14 02:11:32;;;;;;;3.60;1.90;;;;;;;14.29;78.11;99951.48;106751;1272;99260;-56
2023/08/14 02:14:01;;;;;;;4.80;1.50;;;;;;;14.26;78.10;99952.36;106460;1272;25360;-56
2023/08/14 02:16:30;;;;;;;2.20;1.40;;;;;;;14.21;78.42;99948.96;106509;1272;100495;-56
2023/08/14 02:18:59;;;;;;;2.70;1.30;;;;;;;14.17;78.24;99948.69;106376;1271;24218;-56
2023/08/14 02:21:28;;;;;;;2.90;1.90;;;;;;;14.12;78.32;99949.83;106443;1272;22889;-56
2023/08/14 02:23:56;;;;;;;6.40;1.60;;;;;;;14.09;78.46;99952.95;106326;1272;99265;-56
2023/08/14 02:26:25;;;;;;;2.70;1.80;;;;;;;14.05;78.47;99956.16;106574;1272;25304;-56
2023/08/14 02:28:54;;;;;;;2.30;1.30;;;;;;;14.01;78.35;99958.16;106422;1274;99251;-57
2023/08/14 02:31:25;;;;;;;2.30;1.50;;;;;;;13.97;78.43;99960.66;106414;1272;26264;-56
2023/08/14 02:33:58;;;;;;;1.80;1.30;;;;;;;13.94;78.58;99954.89;106331;1272;99422;-56
2023/08/14 02:36:30;;;;;;;2.30;1.40;;;;;;;13.91;78.61;99958.91;106560;1272;22534;-56
2023/08/14 02:38:59;;;;;;;2.90;1.60;;;;;;;13.86;78.83;99960.23;106604;1272;25323;-57
2023/08/14 02:41:31;;;;;;;4.20;2.00;;;;;;;13.83;79.12;99962.52;106504;1272;99239;-57
2023/08/14 02:44:00;;;;;;;2.90;1.30;;;;;;;13.80;79.05;99960.05;106522;1271;24904;-56
2023/08/14 02:46:29;;;;;;;2.20;1.30;;;;;;;13.77;79.11;99960.08;106398;1272;99545;-56
2023/08/14 02:48:58;;;;;;;2.40;1.30;;;;;;;13.74;79.19;99955.19;106485;1273;25247;-56
2023/08/14 02:51:27;;;;;;;5.50;2.10;;;;;;;13.72;79.23;99953.69;106490;1265;22589;-56
2023/08/14 02:53:56;;;;;;;3.00;1.30;;;;;;;13.73;79.21;99964.48;106532;1272;100337;-56
2023/08/14 02:56:26;;;;;;;3.10;1.40;;;;;;;13.73;79.30;99960.27;106698;1272;22738;-56
2023/08/14 02:58:57;;;;;;;3.10;1.60;;;;;;;13.74;79.67;99960.21;106633;1272;100736;-56
2023/08/14 03:01:25;;;;;;;4.10;1.20;;;;;;;13.71;79.56;99967.77;106714;1272;22872;-57
2023/08/14 03:03:54;;;;;;;3.10;1.40;;;;;;;13.67;79.53;99967.77;106712;1272;99406;-56
2023/08/14 03:06:29;;;;;;;4.30;1.80;;;;;;;13.66;79.76;99967.29;106415;1272;25196;-57
2023/08/14 03:08:58;;;;;;;2.20;1.50;;;;;;;13.68;80.07;99972.27;106604;1272;24331;-57
2023/08/14 03:11:27;;;;;;;3.10;1.30;;;;;;;13.70;80.31;99973.94;106662;1272;99316;-56
2023/08/14 03:13:56;;;;;;;5.00;1.90;;;;;;;13.72;80.23;99978.21;106450;1268;25239;-56
2023/08/14 03:16:25;;;;;;;3.60;1.40;;;;;;;13.74;80.26;99973.23;106440;1272;99593;-56
2023/08/14 03:18:54;;;;;;;2.20;1.20;;;;;;;13.73;80.37;99976.24;106594;1272;25879;-56
2023/08/14 03:21:25;;;;;;;5.90;1.30;;;;;;;13.73;80.53;99976.94;106483;1272;22522;-56
2023/08/14 03:24:14;;;;;;;3.00;1.60;;;;;;;13.73;80.73;99981.64;106309;1272;105309;-56
2023/08/14 03:26:43;;;;;;;2.80;1.20;;;;;;;13.73;80.89;99978.15;106545;1272;25371;-57
2023/08/14 03:29:13;;;;;;;3.40;1.20;;;;;;;13.72;80.91;99973.98;106445;1272;99384;-56
2023/08/14 03:31:42;;;;;;;3.30;1.40;;;;;;;13.76;81.06;99977.98;106531;1271;26197;-57
2023/08/14 03:34:11;;;;;;;4.80;1.70;;;;;;;13.77;81.14;99975.84;106410;1272;99507;-56
2023/08/14 03:36:40;;;;;;;1.80;0.90;;;;;;;13.76;81.17;99978.47;106352;1272;22651;-56
2023/08/14 03:39:09;;;;;;;3.80;1.50;;;;;;;13.76;81.43;99979.00;106379;1272;24229;-56
2023/08/14 03:41:44;;;;;;;2.80;0.90;;;;;;;13.77;81.46;99976.85;106283;1272;99997;-56
2023/08/14 03:44:13;;;;;;;3.20;1.20;;;;;;;13.78;81.61;99969.46;106476;1272;22969;-57
2023/08/14 03:46:42;;;;;;;3.30;1.20;;;;;;;13.78;81.69;99970.33;106268;1272;99249;-56
2023/08/14 03:49:11;;;;;;;4.30;1.70;;;;;;;13.82;81.78;99968.55;106505;1274;23807;-55
2023/08/14 03:51:40;;;;;;;3.00;0.90;;;;;;;13.89;82.01;99971.30;106434;1274;22819;-56
2023/08/14 03:54:11;;;;;;;2.80;0.90;;;;;;;13.94;82.05;99970.09;106317;1275;99038;-56
2023/08/14 03:56:40;;;;;;;1.90;1.10;;;;;;;13.99;81.63;99971.39;106406;1275;22552;-57
2023/08/14 03:59:09;;;;;;;4.30;1.60;;;;;;;14.05;81.56;99964.23;106324;1272;99263;-56
2023/08/14 04:01:40;;;;;;;1.90;0.90;;;;;;;14.07;81.77;99963.40;106380;1271;22795;-56
2023/08/14 04:04:12;;;;;;;3.30;1.20;;;;;;;14.14;81.91;99963.38;106268;1272;99426;-56
2023/08/14 04:06:44;;;;;;;2.70;1.00;;;;;;;14.22;82.06;99962.20;106407;1272;22647;-58
2023/08/14 04:09:13;;;;;;;2.50;1.30;;;;;;;14.29;82.23;99961.77;106355;1272;22519;-57
2023/08/14 04:11:41;;;;;;;1.90;1.30;;;;;;;14.39;82.24;99963.46;106313;1271;99692;-57
2023/08/14 04:14:10;;;;;;;2.40;1.10;;;;;;;14.48;82.00;99961.01;106353;1273;22754;-56
2023/08/14 04:16:43;;;;;;;3.50;1.80;;;;;;;14.57;81.97;99963.65;106463;1272;99275;-56
2023/08/14 04:19:30;;;;;;;2.80;1.20;;;;;;;14.66;82.07;99961.37;106462;1274;25193;-57
2023/08/14 04:21:59;;;;;;;2.40;1.20;;;;;;;14.73;82.26;99959.88;106523;1272;99497;-57
2023/08/14 04:24:28;;;;;;;2.30;1.10;;;;;;;14.79;82.28;99960.73;106521;1272;24874;-57
2023/08/14 04:26:57;;;;;;;3.10;1.20;;;;;;;14.88;82.31;99960.77;106515;1274;25551;-57
2023/08/14 04:29:26;;;;;;;9.00;1.70;;;;;;;14.97;82.53;99959.81;106465;1272;99255;-57
2023/08/14 04:31:55;;;;;;;2.20;1.30;;;;;;;15.08;82.65;99957.75;106470;1273;25237;-57
2023/08/14 04:34:24;;;;;;;3.60;1.10;;;;;;;15.19;82.83;99957.38;106464;1274;99426;-58
2023/08/14 04:36:52;;;;;;;2.80;1.10;;;;;;;15.31;83.03;99965.75;106492;1274;22554;-57
2023/08/14 04:39:21;;;;;;;3.90;1.30;;;;;;;15.43;82.91;99969.77;106479;1275;23048;-57
2023/08/14 04:41:51;;;;;;;2.70;1.10;;;;;;;15.55;82.85;99962.86;106393;1272;99296;-57
2023/08/14 04:44:20;;;;;;;3.90;0.90;;;;;;;15.69;82.91;99969.20;106410;1274;25220;-56
2023/08/14 04:46:51;;;;;;;1.20;0.90;;;;;;;15.83;83.06;99975.24;106380;1274;99227;-57
2023/08/14 04:49:29;;;;;;;3.60;1.30;;;;;;;16.03;82.91;99977.35;106514;1272;22528;-56
2023/08/14 04:51:58;;;;;;;1.80;0.70;;;;;;;16.16;82.93;99983.52;106389;1272;100055;-56
2023/08/14 04:54:27;;;;;;;1.40;0.80;;;;;;;16.27;82.92;99982.54;106575;1272;22527;-57
2023/08/14 04:56:56;;;;;;;1.30;0.90;;;;;;;16.43;82.88;99982.58;106398;1273;24238;-55
2023/08/14 04:59:25;;;;;;;2.90;0.70;;;;;;;16.57;82.70;99980.71;106323;1272;100239;-59
2023/08/14 05:01:55;;;;;;;3.40;1.00;;;;;;;16.70;82.64;99982.79;106386;1273;22663;-54
2023/08/14 05:04:25;;;;;;;2.70;1.10;;;;;;;16.84;82.48;99984.20;106387;1274;99489;-58
2023/08/14 05:06:54;;;;;;;4.90;1.60;;;;;;;16.98;82.57;99976.38;106417;1274;25357;-57
2023/08/14 05:09:22;;;;;;;1.70;0.60;;;;;;;17.13;82.42;99975.99;106555;1273;22523;-56
2023/08/14 05:11:59;;;;;;;0.90;0.70;;;;;;;17.28;82.29;99975.52;106231;1273;99683;-57
2023/08/14 05:14:27;;;;;;;3.20;1.00;;;;;;;17.41;82.20;99975.45;106468;1272;22538;-58
2023/08/14 05:16:56;;;;;;;1.90;0.80;;;;;;;17.53;82.56;99977.05;106413;1273;99276;-56
2023/08/14 05:19:25;;;;;;;1.60;1.00;;;;;;;17.63;82.60;99972.95;106483;1272;25426;-55
2023/08/14 05:21:56;;;;;;;1.60;0.90;;;;;;;17.76;82.51;99972.77;106273;1273;99490;-64
2023/08/14 05:24:36;;;;;;;2.20;0.60;;;;;;;17.92;82.59;99974.23;106481;1274;22527;-58
2023/08/14 05:27:05;;;;;;;1.30;0.90;;;;;;;18.07;82.35;99970.96;106394;1272;22611;-57
2023/08/14 05:29:34;;;;;;;2.20;0.80;;;;;;;18.23;82.19;99968.59;106329;1273;99296;-57
2023/08/14 05:32:04;;;;;;;2.00;0.60;;;;;;;18.39;82.25;99964.17;106794;1268;22558;-57
2023/08/14 05:34:33;;;;;;;4.00;1.10;;;;;;;18.57;81.97;99963.36;106495;1274;99955;-60
2023/08/14 05:37:05;;;;;;;2.40;0.70;;;;;;;18.71;81.76;99959.63;106448;1272;22530;-57
2023/08/14 05:39:33;;;;;;;1.20;0.70;;;;;;;18.85;81.69;99955.38;106580;1273;22533;-57
2023/08/14 05:42:02;;;;;;;1.40;0.80;;;;;;;18.98;81.49;99956.09;106445;1272;99295;-58
2023/08/14 05:44:30;;;;;;;1.00;0.80;;;;;;;19.15;81.45;99960.48;106571;1258;25281;-56
2023/08/14 05:47:00;;;;;;;1.60;0.60;;;;;;;19.28;81.31;99958.33;106391;1272;99315;-58
2023/08/14 05:49:29;;;;;;;2.50;0.80;;;;;;;19.46;81.05;99955.87;106358;1272;26725;-58
2023/08/14 05:51:58;;;;;;;1.20;0.80;;;;;;;19.61;80.80;99957.52;106629;1272;99452;-57
2023/08/14 05:54:26;;;;;;;1.30;0.70;;;;;;;19.74;80.65;99952.02;106672;1272;26080;-56
2023/08/14 05:56:55;;;;;;;5.40;0.80;;;;;;;19.90;80.48;99953.73;106452;1272;24205;-57
2023/08/14 05:59:24;;;;;;;2.20;1.00;;;;;;;20.05;80.27;99954.07;106470;1273;99909;-58
2023/08/14 06:01:54;;;;;;;1.20;0.70;;;;;;;20.16;79.87;99952.48;106786;1267;22760;-57
2023/08/14 06:04:28;;;;;;;3.10;1.10;;;;;;;20.24;79.55;99951.59;106255;1265;433710;-58
2023/08/14 06:06:57;;;;;;;0.80;0.60;;;;;;;20.36;79.53;99953.56;106385;1273;25332;-58
2023/08/14 06:09:26;;;;;;;1.60;0.70;;;;;;;20.50;79.26;99957.52;106631;1272;26208;-58
2023/08/14 06:11:58;;;;;;;1.70;1.00;;;;;;;20.64;79.08;99961.12;106535;1272;99299;-57
2023/08/14 06:14:26;;;;;;;3.20;1.20;;;;;;;20.79;78.61;99958.60;106704;1271;25383;-58
2023/08/14 06:16:55;;;;;;;5.10;0.80;;;;;;;20.94;78.61;99961.90;106404;1272;99907;-58
2023/08/14 06:19:24;;;;;;;1.40;0.80;;;;;;;21.09;78.37;99960.80;106785;1272;24254;-58
2023/08/14 06:21:54;;;;;;;1.30;0.60;;;;;;;21.22;78.11;99958.96;106408;1272;99438;-58
2023/08/14 06:24:22;;;;;;;2.20;0.80;;;;;;;21.37;77.87;99962.29;106709;1272;22552;-58
2023/08/14 06:26:51;;;;;;;1.70;0.80;;;;;;;21.50;77.61;99965.15;106643;1272;25526;-58
2023/08/14 06:29:20;;;;;;;1.50;0.80;;;;;;;21.66;77.41;99964.08;106559;1272;99213;-57
2023/08/14 06:31:50;;;;;;;1.90;0.60;;;;;;;21.84;77.28;99962.16;106691;1272;22617;-57
2023/08/14 06:34:19;;;;;;;4.00;0.70;;;;;;;22.02;77.01;99966.17;106408;1272;98509;-57
2023/08/14 06:36:50;;;;;;;1.40;0.70;;;;;;;22.19;76.77;99968.34;106797;1271;22540;-57
2023/08/14 06:39:19;;;;;;;1.10;0.70;;;;;;;22.33;76.28;99967.59;106503;1272;24647;-57
2023/08/14 06:41:48;;;;;;;1.30;0.60;;;;;;;22.48;76.09;99962.84;106567;1257;99288;-58
2023/08/14 06:44:17;;;;;;;1.30;0.60;;;;;;;22.64;75.82;99966.21;106368;1272;25402;-56
2023/08/14 06:46:46;;;;;;;2.80;1.00;;;;;;;22.80;75.37;99968.85;106463;1272;99218;-57
2023/08/14 06:49:15;;;;;;;3.20;0.80;;;;;;;22.94;75.31;99970.34;106506;1272;23985;-55
2023/08/14 06:51:46;;;;;;;2.20;0.90;;;;;;;23.11;74.73;99971.64;107001;1272;25373;-58
2023/08/14 06:54:15;;;;;;;1.40;0.60;;;;;;;23.21;74.20;99975.10;106371;1272;99128;-59
2023/08/14 06:56:44;;;;;;;1.20;0.60;;;;;;;23.35;73.94;99972.52;106976;1272;24342;-57
2023/08/14 06:59:12;;;;;;;5.70;1.00;;;;;;;23.49;73.62;99975.92;106468;1272;99292;-58
2023/08/14 07:01:41;;;;;;;1.70;0.70;;;;;;;23.67;73.37;99977.09;106665;1272;26330;-58
2023/08/14 07:04:11;;;;;;;4.80;1.00;;;;;;;23.86;73.15;99981.79;106516;1272;99430;-57
2023/08/14 07:06:40;;;;;;;1.90;0.60;;;;;;;24.06;72.62;99979.30;106376;1272;24006;-58
2023/08/14 07:09:09;;;;;;;2.10;0.70;;;;;;;24.22;72.51;99983.13;106485;1272;25532;-58
2023/08/14 07:11:38;;;;;;;1.30;0.50;;;;;;;24.41;72.42;99986.33;106531;1273;99914;-57
2023/08/14 07:14:07;;;;;;;9.00;1.00;;;;;;;24.58;71.92;99984.16;106583;1273;22511;-58
2023/08/14 07:16:36;;;;;;;1.00;0.60;;;;;;;24.84;71.23;99983.30;106565;1272;99467;-58
2023/08/14 07:19:05;;;;;;;2.30;0.90;;;;;;;25.36;71.53;99981.48;106381;1272;22654;-57
2023/08/14 07:21:34;;;;;;;1.50;0.80;;;;;;;25.98;70.56;99978.85;106480;1272;22524;-58
2023/08/14 07:24:03;;;;;;;1.80;0.90;;;;;;;26.40;69.64;99981.17;106840;1275;99189;-58
2023/08/14 07:26:31;;;;;;;1.90;0.80;;;;;;;26.87;69.22;99978.21;106479;1272;22534;-57
2023/08/14 07:29:00;;;;;;;2.60;0.90;;;;;;;27.52;68.94;99982.67;106329;1273;99349;-58
2023/08/14 07:31:29;;;;;;;1.10;0.70;;;;;;;28.43;69.17;99990.58;106525;1272;22543;-58
2023/08/14 07:33:57;;;;;;;2.20;0.60;;;;;;;29.48;68.53;99984.66;106236;1272;99516;-58
2023/08/14 07:36:26;;;;;;;1.60;0.70;;;;;;;30.48;67.44;99981.36;106960;1268;22533;-59
2023/08/14 07:38:55;;;;;;;3.30;1.30;;;;;;;31.06;65.67;99986.46;106491;1273;25529;-61
2023/08/14 07:41:24;;;;;;;2.90;1.00;;;;;;;31.87;65.63;99993.35;106400;1272;99288;-61
2023/08/14 07:43:52;;;;;;;1.90;0.70;;;;;;;32.42;63.68;99995.13;106353;1272;22582;-62
2023/08/14 07:46:21;;;;;;;2.30;0.60;;;;;;;33.50;64.35;99997.04;106279;1272;99937;-62
2023/08/14 07:48:50;;;;;;;2.30;0.90;;;;;;;35.20;63.95;99991.58;106602;1272;25984;-61
2023/08/14 07:51:22;;;;;;;1.20;0.80;;;;;;;36.92;61.44;99991.21;106629;1269;22680;-62
2023/08/14 07:53:54;;;;;;;2.20;1.10;;;;;;;38.61;59.15;99989.96;106343;1274;99385;-62
2023/08/14 07:56:22;;;;;;;3.00;0.50;;;;;;;39.77;56.18;99984.00;106543;1272;22633;-61
2023/08/14 07:58:51;;;;;;;4.20;0.70;;;;;;;41.32;53.98;99983.42;106431;1272;99255;-61
2023/08/14 08:01:20;;;;;;;2.80;0.60;;;;;;;42.80;52.42;99976.39;106920;1271;24381;-59
2023/08/14 08:03:49;;;;;;;2.30;1.20;;;;;;;44.24;50.07;99976.55;106434;1274;22534;-61
2023/08/14 08:06:18;;;;;;;1.20;0.70;;;;;;;45.25;48.74;99977.37;110265;1272;22761;-60
2023/08/14 08:08:47;;;;;;;1.50;0.80;;;;;;;46.36;46.36;99969.52;108014;1272;25866;-62
2023/08/14 08:11:17;;;;;;;1.00;0.50;;;;;;;47.48;44.17;99967.02;106398;1272;100361;-61
2023/08/14 08:13:46;;;;;;;2.00;0.80;;;;;;;47.80;40.48;99967.46;106623;1272;25679;-62
2023/08/14 08:16:15;;;;;;;3.50;1.00;;;;;;;47.68;37.82;99969.91;106390;1272;99518;-61
2023/08/14 08:18:44;;;;;;;0.70;0.60;;;;;;;48.58;36.61;99967.67;106574;1272;22543;-67
2023/08/14 08:21:13;;;;;;;2.10;0.70;;;;;;;49.69;35.38;99967.62;106537;1272;24205;-65
2023/08/14 08:23:41;;;;;;;2.50;1.10;;;;;;;50.11;32.90;99966.08;106464;1275;100135;-65
2023/08/14 08:26:10;;;;;;;1.40;0.80;;;;;;;49.17;30.24;99960.89;106663;1272;22971;-65
2023/08/14 08:28:43;;;;;;;3.00;1.70;;;;;;;48.49;27.88;99967.22;106405;1275;99319;-64
2023/08/14 08:31:13;;;;;;;1.40;0.90;;;;;;;47.69;26.19;99967.38;106326;1274;24204;-65
2023/08/14 08:33:42;;;;;;;2.10;1.30;;;;;;;48.22;25.73;99970.69;106388;1273;22546;-65
2023/08/14 08:36:10;;;;;;;3.80;0.90;;;;;;;48.48;24.54;99972.02;106474;1273;99609;-65
2023/08/14 08:38:39;;;;;;;2.00;1.00;;;;;;;49.33;24.56;99966.98;106720;1272;23917;-67
2023/08/14 08:41:13;;;;;;;1.20;0.90;;;;;;;50.38;24.34;99966.90;106420;1270;99978;-65
2023/08/14 08:43:42;;;;;;;1.30;1.10;;;;;;;51.44;23.87;99976.29;106421;1275;23748;-66
2023/08/14 08:46:12;;;;;;;4.10;1.30;;;;;;;51.93;22.65;99974.59;106364;1275;99393;-67
2023/08/14 08:48:42;;;;;;;2.50;1.30;;;;;;;51.19;20.95;99973.41;106472;1272;24207;-67
2023/08/14 08:51:12;;;;;;;2.00;1.60;;;;;;;50.56;20.19;99975.92;106546;1273;25901;-65
2023/08/14 08:53:41;;;;;;;1.70;1.60;;;;;;;49.95;19.05;99972.82;106576;1272;100141;-63
2023/08/14 08:56:13;;;;;;;2.50;2.00;;;;;;;50.08;19.04;99970.70;106943;1273;25290;-64
2023/08/14 08:58:42;;;;;;;1.90;1.80;;;;;;;50.68;18.61;99971.33;106594;1278;99320;-65
2023/08/14 09:01:25;;;;;;;3.70;1.90;;;;;;;51.72;18.90;99964.45;106594;1272;25415;-66
2023/08/14 09:03:58;;;;;;;2.80;2.10;;;;;;;52.97;18.83;99964.13;106473;1273;99433;-65
2023/08/14 09:06:29;;;;;;;2.70;2.50;;;;;;;53.54;18.60;99962.58;106934;1272;22550;-65
2023/08/14 09:08:58;;;;;;;3.30;3.10;;;;;;;52.91;17.33;99963.05;106586;1272;24254;-65
2023/08/14 09:11:29;;;;;;;3.00;2.80;;;;;;;52.50;17.30;99960.01;106339;1273;99247;-63
2023/08/14 09:14:04;;;;;;;3.80;3.60;;;;;;;52.98;17.12;99958.98;106352;1277;22579;-64
2023/08/14 09:16:33;;;;;;;3.50;3.20;;;;;;;52.89;16.45;99958.10;106532;1269;99428;-65
2023/08/14 09:19:11;;;;;;;3.70;3.40;;;;;;;52.49;16.06;99958.06;106498;1273;23871;-66
2023/08/14 09:21:45;;;;;;;3.80;3.60;;;;;;;52.40;15.73;99957.77;106704;1275;22556;-74
2023/08/14 09:24:15;;;;;;;3.80;3.60;;;;;;;52.20;15.61;99955.16;106349;1274;99263;-77
2023/08/14 09:26:46;;;;;;;4.10;3.90;;;;;;;52.22;15.64;99947.99;106391;1273;22773;-77
2023/08/14 09:29:19;;;;;;;3.80;3.60;;;;;;;52.82;15.50;99947.97;106387;1273;99271;-75
2023/08/14 09:31:52;;;;;;;4.50;4.20;;;;;;;52.54;14.93;99952.58;106753;1273;25353;-75
2023/08/14 09:34:25;;;;;;;4.50;4.20;;;;;;;52.58;15.07;99956.67;106479;1272;99531;-73
2023/08/14 09:36:57;;;;;;;5.00;4.70;;;;;;;53.78;15.20;99957.23;106370;1273;22533;-73
2023/08/14 09:39:26;;;;;;;5.60;5.30;;;;;;;54.72;15.12;99960.13;106405;1273;25261;-75
2023/08/14 09:41:55;;;;;;;6.10;5.70;;;;;;;55.45;15.31;99956.78;106239;1274;99306;-78
2023/08/14 09:44:25;;;;;;;8.10;7.60;;;;;;;56.27;14.99;99954.05;106596;1272;22650;-73
2023/08/14 09:46:59;;;;;;;9.70;9.20;;;;;;;56.53;14.54;99949.43;106419;1273;99435;-69
2023/08/14 09:49:31;;;;;;;10.00;9.50;;;;;;;55.96;13.80;99951.27;106586;1273;22538;-74
2023/08/14 09:52:01;;;;;;;11.00;10.40;;;;;;;55.31;13.18;99953.02;106330;1273;99619;-71
2023/08/14 09:54:34;;;;;;;11.20;10.60;;;;;;;54.91;13.44;99951.95;106604;1272;25321;-62
2023/08/14 09:57:05;;;;;;;12.00;11.30;;;;;;;55.23;13.11;99952.63;106351;1273;22542;-70
2023/08/14 09:59:37;;;;;;;11.50;10.90;;;;;;;55.60;13.11;99953.48;106497;1272;100277;-67
2023/08/14 10:02:12;;;;;;;10.60;9.90;;;;;;;54.85;12.42;99951.66;106835;1274;22559;-69
2023/08/14 10:04:46;;;;;;;6.80;6.30;;;;;;;51.83;12.10;99946.47;106584;1275;100553;-72
2023/08/14 10:07:18;;;;;;;5.60;5.30;;;;;;;49.77;12.87;99940.48;106397;1275;22530;-67
2023/08/14 10:09:55;;;;;;;5.00;4.60;;;;;;;50.38;13.47;99940.21;106406;1272;24391;-74
2023/08/14 10:12:32;;;;;;;4.60;4.30;;;;;;;51.73;13.93;99929.32;107124;1273;23887;-71
2023/08/14 10:15:08;;;;;;;5.60;5.20;;;;;;;53.05;14.05;99924.34;106901;1273;22909;-70
2023/08/14 10:17:42;;;;;;;7.50;7.10;;;;;;;54.36;13.60;99931.15;106639;1272;99378;-70
2023/08/14 10:20:15;;;;;;;7.90;7.50;;;;;;;53.94;12.99;99929.84;106780;1272;25304;-71
2023/08/14 10:22:46;;;;;;;8.50;8.10;;;;;;;52.93;12.21;99922.88;107451;1273;99178;-69
2023/08/14 10:25:37;;;;;;;8.60;8.10;;;;;;;51.95;12.91;99919.77;107257;1272;23286;-70
2023/08/14 10:28:09;;;;;;;10.50;9.90;;;;;;;52.90;13.20;99916.84;107203;1273;99952;-69
2023/08/14 10:30:39;;;;;;;10.80;10.10;;;;;;;53.90;12.97;99921.83;106401;1274;22527;-69
2023/08/14 10:33:09;;;;;;;12.50;11.80;;;;;;;54.01;12.70;99918.13;106476;1272;25421;-69
2023/08/14 10:35:53;;;;;;;11.90;11.20;;;;;;;54.53;12.57;99914.95;106381;1273;99596;-72
2023/08/14 10:38:46;;;;;;;13.20;12.40;;;;;;;54.45;12.35;99915.15;106474;1273;22607;-71
2023/08/14 10:41:17;;;;;;;14.00;13.20;;;;;;;54.52;12.57;99912.61;106289;1273;100238;-69
2023/08/14 10:43:52;;;;;;;16.00;15.10;;;;;;;55.53;12.69;99913.55;106734;1273;22538;-67
2023/08/14 10:46:23;;;;;;;14.50;13.70;;;;;;;56.81;12.49;99913.95;107124;1273;99872;-69
2023/08/14 10:48:52;;;;;;;11.00;10.40;;;;;;;55.25;11.81;99918.13;106630;1273;26558;-66
2023/08/14 10:51:21;;;;;;;9.20;8.70;;;;;;;52.85;12.05;99912.65;106493;1272;25418;-66
2023/08/14 10:54:07;;;;;;;8.60;7.90;;;;;;;51.93;11.88;99911.09;106425;1264;99357;-67
2023/08/14 10:56:42;;;;;;;4.80;4.60;;;;;;;50.49;12.02;99905.40;106422;1272;22557;-66
2023/08/14 10:59:24;;;;;;;;;;;;;;;48.07;12.50;99899.81;106676;1272;100269;-66
2023/08/14 11:02:05;;;;;;;3.40;3.10;;;;;;;48.97;13.50;99896.67;106585;1274;22960;-69
2023/08/14 11:05:13;;;;;;;3.40;3.20;;;;;;;49.60;13.34;99898.95;106439;1276;100097;-72
2023/08/14 11:07:56;;;;;;;2.60;2.20;;;;;;;48.14;13.05;99885.30;106868;1280;22768;-68
2023/08/14 11:10:27;;;;;;;2.30;2.20;;;;;;;46.77;13.89;99879.25;106090;1277;99935;-72
2023/08/14 11:13:02;;;;;;;2.30;2.20;;;;;;;47.96;14.34;99879.34;105803;1280;24238;-71
2023/08/14 11:15:34;;;;;;;2.10;1.90;;;;;;;48.21;13.70;99877.39;106116;1280;23857;-77
2023/08/14 11:18:06;;;;;;;2.20;2.00;;;;;;;47.02;13.83;99881.23;105997;1276;99459;-67
2023/08/14 11:20:49;;;;;;;2.10;1.90;;;;;;;45.38;14.11;99875.75;106089;1277;24133;-74
2023/08/14 11:23:19;;;;;;;2.90;2.00;;;;;;;46.03;14.55;99873.63;106052;1280;99460;-76
2023/08/14 11:25:56;;;;;;;;;;;;;;;46.62;14.66;99868.13;106207;1280;22596;-78
2023/08/14 11:31:24;;;;;;;1.90;1.80;;;;;;;45.61;15.12;99865.48;106439;1280;25497;-69
2023/08/14 11:34:16;;;;;;;1.40;1.30;;;;;;;45.75;15.14;99863.79;106600;1282;100609;-68
2023/08/14 11:37:12;;;;;;;2.70;1.20;;;;;;;44.17;15.31;99863.94;106176;1280;22554;-68
2023/08/14 11:39:42;;;;;;;1.30;0.70;;;;;;;42.06;15.76;99866.17;106773;1280;27215;-74
2023/08/14 11:42:15;;;;;;;1.60;0.90;;;;;;;40.59;16.60;99869.48;106187;1280;99396;-66
2023/08/14 11:44:50;;;;;;;1.40;0.70;;;;;;;39.81;17.33;99874.79;106451;1272;24303;-69
2023/08/14 11:47:22;;;;;;;2.60;0.60;;;;;;;39.89;18.05;99869.95;106616;1272;99659;-63